sensor_id;sensor_type;location;lat;lon;timestamp;P1;durP1;ratioP1;P2;durP2;ratioP2
13263;SDS011;6700;51.988;7.646;2022-09-24T00:01:34;9.97;;;7.63;;
13263;SDS011;6700;51.988;7.646;2022-09-24T00:04:05;8.17;;;7.37;;
13263;SDS011;6700;51.988;7.646;2022-09-24T00:06:36;10.40;;;7.83;;
13263;SDS011;6700;51.988;7.646;2022-09-24T00:09:08;9.13;;;8.23;;
13263;SDS011;6700;51.988;7.646;2022-09-24T00:11:36;9.03;;;7.53;;
13263;SDS011;6700;51.988;7.646;2022-09-24T00:14:04;8.40;;;7.23;;
13263;SDS011;6700;51.988;7.646;2022-09-24T00:16:32;8.80;;;7.90;;
13263;SDS011;6700;51.988;7.646;2022-09-24T00:19:00;10.03;;;8.00;;
13263;SDS011;6700;51.988;7.646;2022-09-24T00:21:30;10.73;;;8.57;;
13263;SDS011;6700;51.988;7.646;2022-09-24T00:24:00;9.10;;;7.57;;
13263;SDS011;6700;51.988;7.646;2022-09-24T00:26:29;13.13;;;8.10;;
13263;SDS011;6700;51.988;7.646;2022-09-24T00:29:18;11.50;;;7.87;;
13263;SDS011;6700;51.988;7.646;2022-09-24T00:31:46;8.53;;;7.63;;
13263;SDS011;6700;51.988;7.646;2022-09-24T00:34:14;10.93;;;7.43;;
13263;SDS011;6700;51.988;7.646;2022-09-24T00:36:43;11.07;;;7.67;;
13263;SDS011;6700;51.988;7.646;2022-09-24T00:39:12;9.57;;;7.37;;
13263;SDS011;6700;51.988;7.646;2022-09-24T00:41:40;9.63;;;8.37;;
13263;SDS011;6700;51.988;7.646;2022-09-24T00:47:19;12.40;;;6.77;;
13263;SDS011;6700;51.988;7.646;2022-09-24T00:49:48;11.43;;;7.67;;
13263;SDS011;6700;51.988;7.646;2022-09-24T00:52:16;8.93;;;7.60;;
13263;SDS011;6700;51.988;7.646;2022-09-24T00:54:44;11.47;;;7.37;;
13263;SDS011;6700;51.988;7.646;2022-09-24T00:57:12;13.73;;;8.40;;
13263;SDS011;6700;51.988;7.646;2022-09-24T00:59:39;10.30;;;8.03;;
13263;SDS011;6700;51.988;7.646;2022-09-24T01:02:06;9.40;;;8.37;;
13263;SDS011;6700;51.988;7.646;2022-09-24T01:04:34;10.63;;;8.50;;
13263;SDS011;6700;51.988;7.646;2022-09-24T01:07:01;10.10;;;8.43;;
13263;SDS011;6700;51.988;7.646;2022-09-24T01:09:28;12.63;;;8.70;;
13263;SDS011;6700;51.988;7.646;2022-09-24T01:14:40;13.97;;;8.53;;
13263;SDS011;6700;51.988;7.646;2022-09-24T01:17:18;11.03;;;8.93;;
13263;SDS011;6700;51.988;7.646;2022-09-24T01:20:16;9.43;;;8.53;;
13263;SDS011;6700;51.988;7.646;2022-09-24T01:26:36;10.73;;;8.60;;
13263;SDS011;6700;51.988;7.646;2022-09-24T01:34:05;10.53;;;9.40;;
13263;SDS011;6700;51.988;7.646;2022-09-24T01:36:34;13.53;;;9.63;;
13263;SDS011;6700;51.988;7.646;2022-09-24T01:39:02;11.97;;;9.97;;
13263;SDS011;6700;51.988;7.646;2022-09-24T01:41:32;14.03;;;10.17;;
13263;SDS011;6700;51.988;7.646;2022-09-24T01:44:04;10.73;;;9.63;;
13263;SDS011;6700;51.988;7.646;2022-09-24T01:46:33;12.37;;;10.47;;
13263;SDS011;6700;51.988;7.646;2022-09-24T01:49:03;12.80;;;11.50;;
13263;SDS011;6700;51.988;7.646;2022-09-24T01:51:45;16.33;;;11.97;;
13263;SDS011;6700;51.988;7.646;2022-09-24T01:54:31;14.60;;;10.70;;
13263;SDS011;6700;51.988;7.646;2022-09-24T01:57:17;13.07;;;11.13;;
13263;SDS011;6700;51.988;7.646;2022-09-24T01:59:56;13.63;;;12.23;;
13263;SDS011;6700;51.988;7.646;2022-09-24T02:02:37;19.17;;;13.77;;
13263;SDS011;6700;51.988;7.646;2022-09-24T02:08:23;15.00;;;13.27;;
13263;SDS011;6700;51.988;7.646;2022-09-24T02:13:26;18.67;;;13.50;;
13263;SDS011;6700;51.988;7.646;2022-09-24T02:15:58;21.53;;;14.87;;
13263;SDS011;6700;51.988;7.646;2022-09-24T02:18:28;16.77;;;14.67;;
13263;SDS011;6700;51.988;7.646;2022-09-24T02:21:02;17.83;;;15.90;;
13263;SDS011;6700;51.988;7.646;2022-09-24T02:23:41;18.93;;;16.27;;
13263;SDS011;6700;51.988;7.646;2022-09-24T02:26:12;19.80;;;16.47;;
13263;SDS011;6700;51.988;7.646;2022-09-24T02:28:39;19.53;;;17.43;;
13263;SDS011;6700;51.988;7.646;2022-09-24T02:31:13;21.50;;;17.30;;
13263;SDS011;6700;51.988;7.646;2022-09-24T02:33:45;21.50;;;17.40;;
13263;SDS011;6700;51.988;7.646;2022-09-24T02:36:34;20.47;;;17.33;;
13263;SDS011;6700;51.988;7.646;2022-09-24T02:39:01;19.10;;;16.37;;
13263;SDS011;6700;51.988;7.646;2022-09-24T02:41:30;20.10;;;16.43;;
13263;SDS011;6700;51.988;7.646;2022-09-24T02:43:57;23.23;;;17.77;;
13263;SDS011;6700;51.988;7.646;2022-09-24T02:46:24;21.13;;;18.13;;
13263;SDS011;6700;51.988;7.646;2022-09-24T02:48:51;22.67;;;17.73;;
13263;SDS011;6700;51.988;7.646;2022-09-24T02:51:18;23.20;;;18.60;;
13263;SDS011;6700;51.988;7.646;2022-09-24T02:53:45;25.97;;;20.00;;
13263;SDS011;6700;51.988;7.646;2022-09-24T02:56:11;21.60;;;19.33;;
13263;SDS011;6700;51.988;7.646;2022-09-24T02:58:38;25.20;;;19.63;;
13263;SDS011;6700;51.988;7.646;2022-09-24T03:01:05;22.73;;;18.93;;
13263;SDS011;6700;51.988;7.646;2022-09-24T03:03:32;21.20;;;18.50;;
13263;SDS011;6700;51.988;7.646;2022-09-24T03:05:59;22.07;;;18.77;;
13263;SDS011;6700;51.988;7.646;2022-09-24T03:08:26;20.53;;;18.33;;
13263;SDS011;6700;51.988;7.646;2022-09-24T03:10:53;19.80;;;17.70;;
13263;SDS011;6700;51.988;7.646;2022-09-24T03:13:21;23.83;;;19.23;;
13263;SDS011;6700;51.988;7.646;2022-09-24T03:15:48;22.13;;;19.80;;
13263;SDS011;6700;51.988;7.646;2022-09-24T03:18:15;21.17;;;18.93;;
13263;SDS011;6700;51.988;7.646;2022-09-24T03:20:42;22.97;;;20.50;;
13263;SDS011;6700;51.988;7.646;2022-09-24T03:23:09;21.63;;;19.43;;
13263;SDS011;6700;51.988;7.646;2022-09-24T03:25:36;21.50;;;19.30;;
13263;SDS011;6700;51.988;7.646;2022-09-24T03:28:02;21.20;;;19.03;;
13263;SDS011;6700;51.988;7.646;2022-09-24T03:30:29;23.73;;;20.50;;
13263;SDS011;6700;51.988;7.646;2022-09-24T03:33:14;24.97;;;20.60;;
13263;SDS011;6700;51.988;7.646;2022-09-24T03:35:41;22.57;;;20.13;;
13263;SDS011;6700;51.988;7.646;2022-09-24T03:38:08;23.23;;;20.83;;
13263;SDS011;6700;51.988;7.646;2022-09-24T03:40:36;23.27;;;20.87;;
13263;SDS011;6700;51.988;7.646;2022-09-24T03:43:03;23.97;;;21.50;;
13263;SDS011;6700;51.988;7.646;2022-09-24T03:45:30;25.13;;;20.33;;
13263;SDS011;6700;51.988;7.646;2022-09-24T03:47:57;22.47;;;20.07;;
13263;SDS011;6700;51.988;7.646;2022-09-24T03:50:23;22.77;;;20.40;;
13263;SDS011;6700;51.988;7.646;2022-09-24T03:52:51;24.77;;;20.87;;
13263;SDS011;6700;51.988;7.646;2022-09-24T03:55:17;27.33;;;21.93;;
13263;SDS011;6700;51.988;7.646;2022-09-24T03:57:44;25.53;;;20.50;;
13263;SDS011;6700;51.988;7.646;2022-09-24T04:00:11;22.53;;;20.03;;
13263;SDS011;6700;51.988;7.646;2022-09-24T04:02:38;23.37;;;19.67;;
13263;SDS011;6700;51.988;7.646;2022-09-24T04:05:06;24.50;;;20.47;;
13263;SDS011;6700;51.988;7.646;2022-09-24T04:07:33;24.80;;;20.13;;
13263;SDS011;6700;51.988;7.646;2022-09-24T04:09:59;26.47;;;21.43;;
13263;SDS011;6700;51.988;7.646;2022-09-24T04:12:27;25.83;;;21.43;;
13263;SDS011;6700;51.988;7.646;2022-09-24T04:14:54;25.13;;;21.17;;
13263;SDS011;6700;51.988;7.646;2022-09-24T04:17:21;25.70;;;20.63;;
13263;SDS011;6700;51.988;7.646;2022-09-24T04:19:48;27.80;;;20.60;;
13263;SDS011;6700;51.988;7.646;2022-09-24T04:22:19;24.53;;;20.23;;
13263;SDS011;6700;51.988;7.646;2022-09-24T04:24:46;25.83;;;21.57;;
13263;SDS011;6700;51.988;7.646;2022-09-24T04:27:13;24.10;;;21.57;;
13263;SDS011;6700;51.988;7.646;2022-09-24T04:29:39;26.17;;;21.57;;
13263;SDS011;6700;51.988;7.646;2022-09-24T04:32:06;27.67;;;21.37;;
13263;SDS011;6700;51.988;7.646;2022-09-24T04:34:33;27.00;;;21.70;;
13263;SDS011;6700;51.988;7.646;2022-09-24T04:37:01;29.10;;;21.53;;
13263;SDS011;6700;51.988;7.646;2022-09-24T04:39:35;26.77;;;22.33;;
13263;SDS011;6700;51.988;7.646;2022-09-24T04:42:07;29.50;;;24.60;;
13263;SDS011;6700;51.988;7.646;2022-09-24T04:44:35;26.60;;;23.70;;
13263;SDS011;6700;51.988;7.646;2022-09-24T04:47:02;27.60;;;23.70;;
13263;SDS011;6700;51.988;7.646;2022-09-24T04:49:33;28.97;;;24.07;;
13263;SDS011;6700;51.988;7.646;2022-09-24T04:52:01;31.83;;;25.43;;
13263;SDS011;6700;51.988;7.646;2022-09-24T04:54:50;29.87;;;24.67;;
13263;SDS011;6700;51.988;7.646;2022-09-24T04:57:17;33.33;;;26.40;;
13263;SDS011;6700;51.988;7.646;2022-09-24T04:59:44;28.67;;;25.20;;
13263;SDS011;6700;51.988;7.646;2022-09-24T05:02:10;31.83;;;26.30;;
13263;SDS011;6700;51.988;7.646;2022-09-24T05:04:37;29.67;;;26.07;;
13263;SDS011;6700;51.988;7.646;2022-09-24T05:07:04;31.03;;;26.10;;
13263;SDS011;6700;51.988;7.646;2022-09-24T05:09:31;31.37;;;26.63;;
13263;SDS011;6700;51.988;7.646;2022-09-24T05:11:58;30.67;;;25.67;;
13263;SDS011;6700;51.988;7.646;2022-09-24T05:14:25;30.40;;;26.10;;
13263;SDS011;6700;51.988;7.646;2022-09-24T05:16:51;32.20;;;26.27;;
13263;SDS011;6700;51.988;7.646;2022-09-24T05:19:18;36.07;;;27.00;;
13263;SDS011;6700;51.988;7.646;2022-09-24T05:21:46;31.27;;;24.67;;
13263;SDS011;6700;51.988;7.646;2022-09-24T05:24:13;32.70;;;25.47;;
13263;SDS011;6700;51.988;7.646;2022-09-24T05:26:40;37.00;;;25.90;;
13263;SDS011;6700;51.988;7.646;2022-09-24T05:29:26;33.93;;;26.03;;
13263;SDS011;6700;51.988;7.646;2022-09-24T05:31:52;34.17;;;26.00;;
13263;SDS011;6700;51.988;7.646;2022-09-24T05:34:19;30.77;;;26.40;;
13263;SDS011;6700;51.988;7.646;2022-09-24T05:36:46;31.07;;;25.97;;
13263;SDS011;6700;51.988;7.646;2022-09-24T05:39:13;32.17;;;27.07;;
13263;SDS011;6700;51.988;7.646;2022-09-24T05:41:40;29.53;;;26.33;;
13263;SDS011;6700;51.988;7.646;2022-09-24T05:44:06;34.27;;;27.53;;
13263;SDS011;6700;51.988;7.646;2022-09-24T05:46:33;32.47;;;27.83;;
13263;SDS011;6700;51.988;7.646;2022-09-24T05:49:00;32.17;;;28.10;;
13263;SDS011;6700;51.988;7.646;2022-09-24T05:51:27;33.73;;;26.23;;
13263;SDS011;6700;51.988;7.646;2022-09-24T05:53:54;33.53;;;27.27;;
13263;SDS011;6700;51.988;7.646;2022-09-24T05:56:21;36.00;;;29.10;;
13263;SDS011;6700;51.988;7.646;2022-09-24T05:58:48;33.43;;;27.50;;
13263;SDS011;6700;51.988;7.646;2022-09-24T06:01:15;37.07;;;28.43;;
13263;SDS011;6700;51.988;7.646;2022-09-24T06:03:42;33.60;;;27.50;;
13263;SDS011;6700;51.988;7.646;2022-09-24T06:06:09;32.93;;;28.13;;
13263;SDS011;6700;51.988;7.646;2022-09-24T06:08:36;38.90;;;30.20;;
13263;SDS011;6700;51.988;7.646;2022-09-24T06:11:04;38.63;;;31.37;;
13263;SDS011;6700;51.988;7.646;2022-09-24T06:13:31;41.17;;;30.63;;
13263;SDS011;6700;51.988;7.646;2022-09-24T06:16:03;37.07;;;31.03;;
13263;SDS011;6700;51.988;7.646;2022-09-24T06:18:35;35.23;;;28.50;;
13263;SDS011;6700;51.988;7.646;2022-09-24T06:21:06;33.30;;;28.20;;
13263;SDS011;6700;51.988;7.646;2022-09-24T06:23:36;33.10;;;29.50;;
13263;SDS011;6700;51.988;7.646;2022-09-24T06:26:04;33.33;;;29.27;;
13263;SDS011;6700;51.988;7.646;2022-09-24T06:28:35;30.80;;;27.47;;
13263;SDS011;6700;51.988;7.646;2022-09-24T06:31:03;34.07;;;28.03;;
13263;SDS011;6700;51.988;7.646;2022-09-24T06:33:31;34.20;;;26.67;;
13263;SDS011;6700;51.988;7.646;2022-09-24T06:35:58;30.07;;;24.63;;
13263;SDS011;6700;51.988;7.646;2022-09-24T06:38:26;32.10;;;26.17;;
13263;SDS011;6700;51.988;7.646;2022-09-24T06:40:57;33.93;;;25.73;;
13263;SDS011;6700;51.988;7.646;2022-09-24T06:43:25;29.53;;;25.33;;
13263;SDS011;6700;51.988;7.646;2022-09-24T06:45:56;29.53;;;25.77;;
13263;SDS011;6700;51.988;7.646;2022-09-24T06:48:23;31.07;;;25.83;;
13263;SDS011;6700;51.988;7.646;2022-09-24T06:50:51;29.80;;;24.97;;
13263;SDS011;6700;51.988;7.646;2022-09-24T06:53:19;27.00;;;23.53;;
13263;SDS011;6700;51.988;7.646;2022-09-24T06:55:46;28.93;;;24.63;;
13263;SDS011;6700;51.988;7.646;2022-09-24T06:58:15;27.30;;;24.03;;
13263;SDS011;6700;51.988;7.646;2022-09-24T07:00:56;26.20;;;23.47;;
13263;SDS011;6700;51.988;7.646;2022-09-24T07:03:27;29.57;;;26.37;;
13263;SDS011;6700;51.988;7.646;2022-09-24T07:05:59;30.00;;;26.30;;
13263;SDS011;6700;51.988;7.646;2022-09-24T07:08:27;31.47;;;25.23;;
13263;SDS011;6700;51.988;7.646;2022-09-24T07:10:54;30.53;;;25.43;;
13263;SDS011;6700;51.988;7.646;2022-09-24T07:13:21;30.40;;;25.50;;
13263;SDS011;6700;51.988;7.646;2022-09-24T07:15:49;27.87;;;24.97;;
13263;SDS011;6700;51.988;7.646;2022-09-24T07:18:17;29.07;;;23.80;;
13263;SDS011;6700;51.988;7.646;2022-09-24T07:20:54;28.40;;;25.33;;
13263;SDS011;6700;51.988;7.646;2022-09-24T07:23:21;30.40;;;25.87;;
13263;SDS011;6700;51.988;7.646;2022-09-24T07:25:48;32.37;;;27.23;;
13263;SDS011;6700;51.988;7.646;2022-09-24T07:28:16;31.47;;;26.43;;
13263;SDS011;6700;51.988;7.646;2022-09-24T07:30:46;28.77;;;25.63;;
13263;SDS011;6700;51.988;7.646;2022-09-24T07:33:22;32.87;;;27.03;;
13263;SDS011;6700;51.988;7.646;2022-09-24T07:35:49;30.90;;;25.90;;
13263;SDS011;6700;51.988;7.646;2022-09-24T07:38:16;32.97;;;27.23;;
13263;SDS011;6700;51.988;7.646;2022-09-24T07:40:43;30.37;;;26.70;;
13263;SDS011;6700;51.988;7.646;2022-09-24T07:43:10;31.90;;;26.17;;
13263;SDS011;6700;51.988;7.646;2022-09-24T07:45:39;30.03;;;26.83;;
13263;SDS011;6700;51.988;7.646;2022-09-24T07:48:08;31.43;;;27.87;;
13263;SDS011;6700;51.988;7.646;2022-09-24T07:50:40;32.80;;;26.30;;
13263;SDS011;6700;51.988;7.646;2022-09-24T07:53:11;34.50;;;28.57;;
13263;SDS011;6700;51.988;7.646;2022-09-24T07:55:38;31.10;;;27.67;;
13263;SDS011;6700;51.988;7.646;2022-09-24T07:58:07;30.43;;;26.83;;
13263;SDS011;6700;51.988;7.646;2022-09-24T08:00:36;31.30;;;27.97;;
13263;SDS011;6700;51.988;7.646;2022-09-24T08:03:03;33.20;;;27.30;;
13263;SDS011;6700;51.988;7.646;2022-09-24T08:05:30;33.17;;;28.70;;
13263;SDS011;6700;51.988;7.646;2022-09-24T08:07:58;38.00;;;28.10;;
13263;SDS011;6700;51.988;7.646;2022-09-24T08:10:26;34.60;;;27.00;;
13263;SDS011;6700;51.988;7.646;2022-09-24T08:12:53;33.47;;;27.63;;
13263;SDS011;6700;51.988;7.646;2022-09-24T08:15:22;35.40;;;27.80;;
13263;SDS011;6700;51.988;7.646;2022-09-24T08:17:49;31.60;;;27.23;;
13263;SDS011;6700;51.988;7.646;2022-09-24T08:20:16;31.50;;;28.03;;
13263;SDS011;6700;51.988;7.646;2022-09-24T08:22:43;38.43;;;29.40;;
13263;SDS011;6700;51.988;7.646;2022-09-24T08:25:10;31.10;;;27.70;;
13263;SDS011;6700;51.988;7.646;2022-09-24T08:27:37;33.60;;;28.07;;
13263;SDS011;6700;51.988;7.646;2022-09-24T08:30:04;31.27;;;27.53;;
13263;SDS011;6700;51.988;7.646;2022-09-24T08:32:33;36.10;;;29.13;;
13263;SDS011;6700;51.988;7.646;2022-09-24T08:35:00;32.23;;;28.63;;
13263;SDS011;6700;51.988;7.646;2022-09-24T08:37:30;35.50;;;30.03;;
13263;SDS011;6700;51.988;7.646;2022-09-24T08:39:56;31.57;;;27.27;;
13263;SDS011;6700;51.988;7.646;2022-09-24T08:42:39;33.20;;;27.73;;
13263;SDS011;6700;51.988;7.646;2022-09-24T08:45:15;32.77;;;29.37;;
13263;SDS011;6700;51.988;7.646;2022-09-24T08:48:18;31.23;;;26.23;;
13263;SDS011;6700;51.988;7.646;2022-09-24T08:50:51;31.17;;;25.97;;
13263;SDS011;6700;51.988;7.646;2022-09-24T08:53:30;28.67;;;24.70;;
13263;SDS011;6700;51.988;7.646;2022-09-24T08:56:19;28.93;;;24.70;;
13263;SDS011;6700;51.988;7.646;2022-09-24T09:01:35;30.00;;;24.90;;
13263;SDS011;6700;51.988;7.646;2022-09-24T09:12:30;27.27;;;22.00;;
13263;SDS011;6700;51.988;7.646;2022-09-24T09:17:45;27.73;;;23.13;;
13263;SDS011;6700;51.988;7.646;2022-09-24T09:20:30;26.70;;;22.13;;
13263;SDS011;6700;51.988;7.646;2022-09-24T09:22:59;26.13;;;21.67;;
13263;SDS011;6700;51.988;7.646;2022-09-24T09:25:29;26.47;;;21.57;;
13263;SDS011;6700;51.988;7.646;2022-09-24T09:28:03;22.43;;;20.17;;
13263;SDS011;6700;51.988;7.646;2022-09-24T09:30:37;23.23;;;19.23;;
13263;SDS011;6700;51.988;7.646;2022-09-24T09:33:31;23.80;;;20.37;;
13263;SDS011;6700;51.988;7.646;2022-09-24T09:38:50;21.70;;;19.37;;
13263;SDS011;6700;51.988;7.646;2022-09-24T09:44:23;26.10;;;19.97;;
13263;SDS011;6700;51.988;7.646;2022-09-24T09:46:57;27.73;;;21.57;;
13263;SDS011;6700;51.988;7.646;2022-09-24T09:49:27;26.07;;;18.97;;
13263;SDS011;6700;51.988;7.646;2022-09-24T09:51:58;24.27;;;20.30;;
13263;SDS011;6700;51.988;7.646;2022-09-24T09:54:34;25.63;;;20.13;;
13263;SDS011;6700;51.988;7.646;2022-09-24T09:57:02;23.43;;;18.77;;
13263;SDS011;6700;51.988;7.646;2022-09-24T09:59:29;23.40;;;19.63;;
13263;SDS011;6700;51.988;7.646;2022-09-24T10:01:59;25.93;;;19.93;;
13263;SDS011;6700;51.988;7.646;2022-09-24T10:07:04;25.13;;;18.90;;
13263;SDS011;6700;51.988;7.646;2022-09-24T10:09:31;22.70;;;18.57;;
13263;SDS011;6700;51.988;7.646;2022-09-24T10:12:05;20.27;;;18.17;;
13263;SDS011;6700;51.988;7.646;2022-09-24T10:14:33;23.70;;;18.10;;
13263;SDS011;6700;51.988;7.646;2022-09-24T10:17:01;20.23;;;17.47;;
13263;SDS011;6700;51.988;7.646;2022-09-24T10:19:34;21.80;;;18.20;;
13263;SDS011;6700;51.988;7.646;2022-09-24T10:22:08;21.50;;;17.90;;
13263;SDS011;6700;51.988;7.646;2022-09-24T10:24:39;20.23;;;17.37;;
13263;SDS011;6700;51.988;7.646;2022-09-24T10:27:11;21.10;;;17.50;;
13263;SDS011;6700;51.988;7.646;2022-09-24T10:29:38;20.47;;;15.80;;
13263;SDS011;6700;51.988;7.646;2022-09-24T10:32:25;17.13;;;14.67;;
13263;SDS011;6700;51.988;7.646;2022-09-24T10:34:55;19.03;;;14.17;;
13263;SDS011;6700;51.988;7.646;2022-09-24T10:37:23;15.47;;;13.30;;
13263;SDS011;6700;51.988;7.646;2022-09-24T10:40:00;16.93;;;14.83;;
13263;SDS011;6700;51.988;7.646;2022-09-24T10:42:29;30.37;;;23.27;;
13263;SDS011;6700;51.988;7.646;2022-09-24T10:44:57;75.10;;;45.20;;
13263;SDS011;6700;51.988;7.646;2022-09-24T10:50:02;27.03;;;19.60;;
13263;SDS011;6700;51.988;7.646;2022-09-24T10:55:16;19.70;;;12.70;;
13263;SDS011;6700;51.988;7.646;2022-09-24T11:00:19;72.33;;;38.07;;
13263;SDS011;6700;51.988;7.646;2022-09-24T11:05:30;23.80;;;17.07;;
13263;SDS011;6700;51.988;7.646;2022-09-24T11:08:03;20.33;;;15.97;;
13263;SDS011;6700;51.988;7.646;2022-09-24T11:10:55;17.27;;;12.20;;
13263;SDS011;6700;51.988;7.646;2022-09-24T11:24:01;12.13;;;8.80;;
13263;SDS011;6700;51.988;7.646;2022-09-24T11:29:18;10.53;;;9.40;;
13263;SDS011;6700;51.988;7.646;2022-09-24T11:32:13;10.23;;;9.23;;
13263;SDS011;6700;51.988;7.646;2022-09-24T11:34:45;11.37;;;9.07;;
13263;SDS011;6700;51.988;7.646;2022-09-24T11:37:21;9.63;;;8.07;;
13263;SDS011;6700;51.988;7.646;2022-09-24T11:42:26;10.33;;;8.70;;
13263;SDS011;6700;51.988;7.646;2022-09-24T11:44:58;12.57;;;9.30;;
13263;SDS011;6700;51.988;7.646;2022-09-24T11:47:33;11.90;;;9.40;;
13263;SDS011;6700;51.988;7.646;2022-09-24T11:52:38;9.47;;;8.50;;
13263;SDS011;6700;51.988;7.646;2022-09-24T11:57:39;9.50;;;8.23;;
13263;SDS011;6700;51.988;7.646;2022-09-24T12:02:53;14.63;;;8.70;;
13263;SDS011;6700;51.988;7.646;2022-09-24T12:07:53;9.57;;;8.27;;
13263;SDS011;6700;51.988;7.646;2022-09-24T12:10:30;10.47;;;8.07;;
13263;SDS011;6700;51.988;7.646;2022-09-24T12:13:05;9.87;;;8.07;;
13263;SDS011;6700;51.988;7.646;2022-09-24T12:15:42;9.77;;;8.33;;
13263;SDS011;6700;51.988;7.646;2022-09-24T12:18:13;9.77;;;8.70;;
13263;SDS011;6700;51.988;7.646;2022-09-24T12:20:53;9.13;;;8.23;;
13263;SDS011;6700;51.988;7.646;2022-09-24T12:23:24;9.73;;;7.73;;
13263;SDS011;6700;51.988;7.646;2022-09-24T12:25:53;10.63;;;9.13;;
13263;SDS011;6700;51.988;7.646;2022-09-24T12:28:22;10.73;;;9.00;;
13263;SDS011;6700;51.988;7.646;2022-09-24T12:31:17;10.10;;;9.00;;
13263;SDS011;6700;51.988;7.646;2022-09-24T12:34:07;9.77;;;7.30;;
13263;SDS011;6700;51.988;7.646;2022-09-24T12:39:27;10.10;;;8.23;;
13263;SDS011;6700;51.988;7.646;2022-09-24T12:42:00;8.87;;;7.97;;
13263;SDS011;6700;51.988;7.646;2022-09-24T12:44:39;9.13;;;8.00;;
13263;SDS011;6700;51.988;7.646;2022-09-24T12:47:19;11.20;;;8.37;;
13263;SDS011;6700;51.988;7.646;2022-09-24T12:49:47;9.47;;;7.83;;
13263;SDS011;6700;51.988;7.646;2022-09-24T12:54:44;10.97;;;7.93;;
13263;SDS011;6700;51.988;7.646;2022-09-24T12:57:16;10.37;;;7.53;;
13263;SDS011;6700;51.988;7.646;2022-09-24T12:59:52;10.20;;;8.47;;
13263;SDS011;6700;51.988;7.646;2022-09-24T13:02:21;10.33;;;8.33;;
13263;SDS011;6700;51.988;7.646;2022-09-24T13:04:50;10.07;;;7.87;;
13263;SDS011;6700;51.988;7.646;2022-09-24T13:09:54;9.73;;;8.10;;
13263;SDS011;6700;51.988;7.646;2022-09-24T13:12:31;8.33;;;7.53;;
13263;SDS011;6700;51.988;7.646;2022-09-24T13:14:59;9.53;;;8.53;;
13263;SDS011;6700;51.988;7.646;2022-09-24T13:17:31;9.83;;;8.20;;
13263;SDS011;6700;51.988;7.646;2022-09-24T13:20:01;9.63;;;7.87;;
13263;SDS011;6700;51.988;7.646;2022-09-24T13:22:31;10.47;;;8.67;;
13263;SDS011;6700;51.988;7.646;2022-09-24T13:27:34;9.87;;;7.30;;
13263;SDS011;6700;51.988;7.646;2022-09-24T13:32:36;10.60;;;7.67;;
13263;SDS011;6700;51.988;7.646;2022-09-24T13:35:08;8.87;;;7.50;;
13263;SDS011;6700;51.988;7.646;2022-09-24T13:37:46;8.17;;;7.37;;
13263;SDS011;6700;51.988;7.646;2022-09-24T13:40:17;8.37;;;7.37;;
13263;SDS011;6700;51.988;7.646;2022-09-24T13:42:48;8.47;;;7.50;;
13263;SDS011;6700;51.988;7.646;2022-09-24T13:45:19;9.63;;;8.50;;
13263;SDS011;6700;51.988;7.646;2022-09-24T13:47:57;8.83;;;7.87;;
13263;SDS011;6700;51.988;7.646;2022-09-24T13:50:36;7.00;;;6.17;;
13263;SDS011;6700;51.988;7.646;2022-09-24T13:55:53;7.47;;;6.17;;
13263;SDS011;6700;51.988;7.646;2022-09-24T13:58:27;6.50;;;5.73;;
13263;SDS011;6700;51.988;7.646;2022-09-24T14:00:56;7.23;;;6.53;;
13263;SDS011;6700;51.988;7.646;2022-09-24T14:03:25;7.73;;;6.37;;
13263;SDS011;6700;51.988;7.646;2022-09-24T14:05:54;7.63;;;5.67;;
13263;SDS011;6700;51.988;7.646;2022-09-24T14:08:25;6.57;;;5.97;;
13263;SDS011;6700;51.988;7.646;2022-09-24T14:11:05;9.30;;;6.30;;
13263;SDS011;6700;51.988;7.646;2022-09-24T14:13:35;9.13;;;7.03;;
13263;SDS011;6700;51.988;7.646;2022-09-24T14:16:08;8.33;;;6.90;;
13263;SDS011;6700;51.988;7.646;2022-09-24T14:18:35;9.33;;;7.20;;
13263;SDS011;6700;51.988;7.646;2022-09-24T14:21:04;11.07;;;6.27;;
13263;SDS011;6700;51.988;7.646;2022-09-24T14:23:37;7.17;;;6.13;;
13263;SDS011;6700;51.988;7.646;2022-09-24T14:26:06;7.07;;;6.17;;
13263;SDS011;6700;51.988;7.646;2022-09-24T14:28:34;10.20;;;6.83;;
13263;SDS011;6700;51.988;7.646;2022-09-24T14:31:02;7.17;;;5.67;;
13263;SDS011;6700;51.988;7.646;2022-09-24T14:33:35;6.63;;;5.70;;
13263;SDS011;6700;51.988;7.646;2022-09-24T14:36:03;7.47;;;5.77;;
13263;SDS011;6700;51.988;7.646;2022-09-24T14:38:40;9.83;;;7.27;;
13263;SDS011;6700;51.988;7.646;2022-09-24T14:41:18;7.80;;;7.00;;
13263;SDS011;6700;51.988;7.646;2022-09-24T14:43:57;8.43;;;6.27;;
13263;SDS011;6700;51.988;7.646;2022-09-24T14:46:28;8.23;;;7.10;;
13263;SDS011;6700;51.988;7.646;2022-09-24T14:49:03;8.27;;;6.90;;
13263;SDS011;6700;51.988;7.646;2022-09-24T14:51:31;7.80;;;6.87;;
13263;SDS011;6700;51.988;7.646;2022-09-24T14:56:44;7.83;;;7.03;;
13263;SDS011;6700;51.988;7.646;2022-09-24T14:59:14;8.07;;;6.60;;
13263;SDS011;6700;51.988;7.646;2022-09-24T15:01:43;8.10;;;7.23;;
13263;SDS011;6700;51.988;7.646;2022-09-24T15:04:19;10.67;;;7.43;;
13263;SDS011;6700;51.988;7.646;2022-09-24T15:06:48;8.87;;;7.27;;
13263;SDS011;6700;51.988;7.646;2022-09-24T15:09:28;8.80;;;6.90;;
13263;SDS011;6700;51.988;7.646;2022-09-24T15:12:06;11.20;;;7.40;;
13263;SDS011;6700;51.988;7.646;2022-09-24T15:14:34;9.67;;;6.80;;
13263;SDS011;6700;51.988;7.646;2022-09-24T15:17:07;7.93;;;7.13;;
13263;SDS011;6700;51.988;7.646;2022-09-24T15:19:35;7.57;;;6.77;;
13263;SDS011;6700;51.988;7.646;2022-09-24T15:22:08;9.07;;;8.17;;
13263;SDS011;6700;51.988;7.646;2022-09-24T15:24:35;9.13;;;7.03;;
13263;SDS011;6700;51.988;7.646;2022-09-24T15:27:14;8.47;;;6.87;;
13263;SDS011;6700;51.988;7.646;2022-09-24T15:29:42;8.17;;;7.13;;
13263;SDS011;6700;51.988;7.646;2022-09-24T15:32:16;8.17;;;7.30;;
13263;SDS011;6700;51.988;7.646;2022-09-24T15:34:45;7.77;;;6.67;;
13263;SDS011;6700;51.988;7.646;2022-09-24T15:37:15;11.23;;;7.50;;
13263;SDS011;6700;51.988;7.646;2022-09-24T15:39:43;8.07;;;6.83;;
13263;SDS011;6700;51.988;7.646;2022-09-24T15:42:21;8.23;;;7.03;;
13263;SDS011;6700;51.988;7.646;2022-09-24T15:44:49;7.40;;;6.40;;
13263;SDS011;6700;51.988;7.646;2022-09-24T15:47:16;10.10;;;6.70;;
13263;SDS011;6700;51.988;7.646;2022-09-24T15:49:44;7.03;;;6.27;;
13263;SDS011;6700;51.988;7.646;2022-09-24T15:52:21;7.13;;;6.43;;
13263;SDS011;6700;51.988;7.646;2022-09-24T15:54:50;7.57;;;5.83;;
13263;SDS011;6700;51.988;7.646;2022-09-24T15:57:18;5.73;;;5.13;;
13263;SDS011;6700;51.988;7.646;2022-09-24T15:59:48;7.33;;;6.57;;
13263;SDS011;6700;51.988;7.646;2022-09-24T16:02:22;8.67;;;6.40;;
13263;SDS011;6700;51.988;7.646;2022-09-24T16:04:51;7.27;;;6.13;;
13263;SDS011;6700;51.988;7.646;2022-09-24T16:07:19;7.87;;;6.73;;
13263;SDS011;6700;51.988;7.646;2022-09-24T16:09:46;8.40;;;7.60;;
13263;SDS011;6700;51.988;7.646;2022-09-24T16:12:16;8.67;;;5.90;;
13263;SDS011;6700;51.988;7.646;2022-09-24T16:14:45;11.07;;;6.23;;
13263;SDS011;6700;51.988;7.646;2022-09-24T16:17:12;7.40;;;5.37;;
13263;SDS011;6700;51.988;7.646;2022-09-24T16:19:39;7.00;;;5.50;;
13263;SDS011;6700;51.988;7.646;2022-09-24T16:22:08;8.03;;;6.70;;
13263;SDS011;6700;51.988;7.646;2022-09-24T16:24:35;11.43;;;7.87;;
13263;SDS011;6700;51.988;7.646;2022-09-24T16:27:03;13.60;;;8.90;;
13263;SDS011;6700;51.988;7.646;2022-09-24T16:29:30;8.63;;;7.60;;
13263;SDS011;6700;51.988;7.646;2022-09-24T16:31:57;9.37;;;7.57;;
13263;SDS011;6700;51.988;7.646;2022-09-24T16:34:27;8.53;;;7.30;;
13263;SDS011;6700;51.988;7.646;2022-09-24T16:36:55;9.00;;;6.93;;
13263;SDS011;6700;51.988;7.646;2022-09-24T16:39:23;8.27;;;6.90;;
13263;SDS011;6700;51.988;7.646;2022-09-24T16:41:50;8.57;;;6.50;;